createdAt,value
2023-05-20T00:01:50.092Z,100704.69
2023-05-20T00:04:17.277Z,100703.69
2023-05-20T00:06:44.436Z,100701.81
2023-05-20T00:09:11.541Z,100699.16
2023-05-20T00:11:38.688Z,100709.41
2023-05-20T00:14:05.654Z,100701.44
2023-05-20T00:16:32.893Z,100702.25
2023-05-20T00:19:00.034Z,100703.78
2023-05-20T00:21:27.522Z,100701.13
2023-05-20T00:23:54.566Z,100700.09
2023-05-20T00:26:21.584Z,100702.53
2023-05-20T00:28:54.243Z,100694.69
2023-05-20T00:31:21.826Z,100695.63
2023-05-20T00:33:49.142Z,100697.47
2023-05-20T00:36:16.384Z,100689.81
2023-05-20T00:38:43.504Z,100693.34
2023-05-20T00:41:10.545Z,100693.44
2023-05-20T00:43:37.610Z,100693.38
2023-05-20T00:46:04.868Z,100684.72
2023-05-20T00:48:36.200Z,100696.84
2023-05-20T00:51:05.144Z,100696.75
2023-05-20T00:53:32.366Z,100695.69
2023-05-20T00:55:59.447Z,100698.03
2023-05-20T00:58:26.531Z,100695.31
2023-05-20T01:00:53.537Z,100698.72
2023-05-20T01:03:20.873Z,100698.50
2023-05-20T01:05:48.346Z,100699.13
2023-05-20T01:08:15.438Z,100700.78
2023-05-20T01:10:42.989Z,100699.91
2023-05-20T01:13:11.761Z,100696.25
2023-05-20T01:15:39.281Z,100697.91
2023-05-20T01:18:06.535Z,100697.00
2023-05-20T01:20:33.701Z,100698.63
2023-05-20T01:23:00.836Z,100704.63
2023-05-20T01:25:27.832Z,100701.84
2023-05-20T01:27:55.938Z,100707.75
2023-05-20T01:30:26.837Z,100703.41
2023-05-20T01:33:07.060Z,100703.25
2023-05-20T01:35:34.284Z,100700.47
2023-05-20T01:38:01.526Z,100706.50
2023-05-20T01:40:29.094Z,100710.78
2023-05-20T01:42:56.664Z,100714.22
2023-05-20T01:45:24.722Z,100711.72
2023-05-20T01:47:51.970Z,100713.47
2023-05-20T01:50:19.604Z,100706.56
2023-05-20T01:52:46.786Z,100704.09
2023-05-20T01:55:14.221Z,100704.16
2023-05-20T01:57:42.070Z,100708.47
2023-05-20T02:00:10.884Z,100703.41
2023-05-20T02:02:41.601Z,100699.16
2023-05-20T02:05:11.410Z,100704.41
2023-05-20T02:07:38.581Z,100699.34
2023-05-20T02:10:06.506Z,100695.13
2023-05-20T02:12:36.891Z,100696.06
2023-05-20T02:15:06.321Z,100701.38
2023-05-20T02:17:34.788Z,100690.22
2023-05-20T02:20:22.126Z,100702.41
2023-05-20T02:22:49.262Z,100698.25
2023-05-20T02:25:16.630Z,100700.97
2023-05-20T02:27:44.620Z,100691.56
2023-05-20T02:30:12.182Z,100690.81
2023-05-20T02:32:39.203Z,100690.91
2023-05-20T02:35:06.840Z,100689.41
2023-05-20T02:37:34.576Z,100690.41
2023-05-20T02:40:01.732Z,100689.69
2023-05-20T02:42:32.037Z,100688.09
2023-05-20T02:44:59.393Z,100687.38
2023-05-20T02:47:27.243Z,100688.28
2023-05-20T02:49:54.274Z,100689.19
2023-05-20T02:52:22.153Z,100691.09
2023-05-20T02:54:49.357Z,100684.34
2023-05-20T02:57:16.355Z,100687.13
2023-05-20T02:59:43.573Z,100683.09
2023-05-20T03:02:10.824Z,100688.56
2023-05-20T03:04:41.225Z,100687.91
2023-05-20T03:07:09.096Z,100696.56
2023-05-20T03:09:36.853Z,100688.88
2023-05-20T03:12:05.467Z,100690.69
2023-05-20T03:14:32.724Z,100688.19
2023-05-20T03:17:00.193Z,100688.38
2023-05-20T03:19:27.588Z,100695.38
2023-05-20T03:21:54.922Z,100695.56
2023-05-20T03:24:23.640Z,100687.09
2023-05-20T03:26:51.059Z,100690.78
2023-05-20T03:29:18.343Z,100688.50
2023-05-20T03:31:46.530Z,100690.44
2023-05-20T03:34:14.170Z,100688.88
2023-05-20T03:36:41.634Z,100685.69
2023-05-20T03:39:08.871Z,100691.16
2023-05-20T03:41:36.186Z,100690.53
2023-05-20T03:44:03.792Z,100687.34
2023-05-20T03:46:32.752Z,100684.06
2023-05-20T03:49:02.166Z,100682.56
2023-05-20T03:51:30.359Z,100682.84
2023-05-20T03:54:03.522Z,100682.25
2023-05-20T03:56:30.933Z,100679.00
2023-05-20T03:58:58.345Z,100676.69
2023-05-20T04:01:26.028Z,100678.69
2023-05-20T04:03:53.582Z,100676.22
2023-05-20T04:06:22.595Z,100679.03
2023-05-20T04:08:51.049Z,100677.44
2023-05-20T04:11:21.522Z,100687.13
2023-05-20T04:13:49.143Z,100676.03
2023-05-20T04:16:16.806Z,100663.16
2023-05-20T04:18:46.154Z,100669.34
2023-05-20T04:21:14.161Z,100673.72
2023-05-20T04:23:41.834Z,100669.41
2023-05-20T04:26:09.064Z,100668.66
2023-05-20T04:28:37.870Z,100675.69
2023-05-20T04:31:06.256Z,100679.19
2023-05-20T04:33:38.392Z,100672.28
2023-05-20T04:36:12.199Z,100668.00
2023-05-20T04:38:42.440Z,100661.13
2023-05-20T04:41:09.808Z,100665.47
2023-05-20T04:43:39.129Z,100664.59
2023-05-20T04:46:06.555Z,100671.56
2023-05-20T04:48:34.484Z,100660.25
2023-05-20T04:51:02.305Z,100670.66
2023-05-20T04:53:31.109Z,100666.28
2023-05-20T04:55:58.250Z,100663.66
2023-05-20T04:58:25.443Z,100665.41
2023-05-20T05:00:53.171Z,100673.22
2023-05-20T05:03:20.322Z,100664.47
2023-05-20T05:05:48.539Z,100665.31
2023-05-20T05:08:16.811Z,100658.31
2023-05-20T05:10:49.252Z,100664.31
2023-05-20T05:13:16.405Z,100659.00
2023-05-20T05:15:43.718Z,100656.28
2023-05-20T05:18:12.308Z,100652.81
2023-05-20T05:20:39.626Z,100652.84
2023-05-20T05:23:07.249Z,100644.06
2023-05-20T05:25:34.597Z,100646.56
2023-05-20T05:28:01.830Z,100643.88
2023-05-20T05:30:28.912Z,100634.25
2023-05-20T05:32:56.312Z,100637.69
2023-05-20T05:35:23.629Z,100641.06
2023-05-20T05:37:51.020Z,100641.81
2023-05-20T05:40:18.214Z,100641.69
2023-05-20T05:42:45.611Z,100638.13
2023-05-20T05:45:13.050Z,100637.38
2023-05-20T05:47:43.016Z,100632.22
2023-05-20T05:50:10.497Z,100634.78
2023-05-20T05:52:38.261Z,100646.16
2023-05-20T05:55:09.661Z,100638.28
2023-05-20T05:57:37.004Z,100643.44
2023-05-20T06:00:05.032Z,100633.75
2023-05-20T06:02:46.551Z,100639.00
2023-05-20T06:05:24.525Z,100642.53
2023-05-20T06:07:53.940Z,100639.84
2023-05-20T06:10:21.328Z,100640.75
2023-05-20T06:12:49.349Z,100636.44
2023-05-20T06:15:17.803Z,100638.16
2023-05-20T06:17:45.752Z,100628.41
2023-05-20T06:20:13.624Z,100629.19
2023-05-20T06:22:40.932Z,100633.53
2023-05-20T06:25:09.437Z,100630.75
2023-05-20T06:27:37.230Z,100631.47
2023-05-20T06:30:06.840Z,100639.09
2023-05-20T06:32:34.095Z,100640.75
2023-05-20T06:35:01.280Z,100633.56
2023-05-20T06:37:30.452Z,100634.41
2023-05-20T06:39:57.900Z,100634.25
2023-05-20T06:42:24.985Z,100631.50
2023-05-20T06:45:03.580Z,100623.34
2023-05-20T06:47:50.124Z,100625.06
2023-05-20T06:50:17.375Z,100633.66
2023-05-20T06:52:45.038Z,100634.56
2023-05-20T06:55:13.141Z,100625.75
2023-05-20T06:57:40.842Z,100626.78
2023-05-20T07:00:09.217Z,100633.03
2023-05-20T07:02:40.747Z,100635.78
2023-05-20T07:05:08.474Z,100635.97
2023-05-20T07:07:35.671Z,100623.72
2023-05-20T07:10:05.791Z,100629.75
2023-05-20T07:12:34.984Z,100625.44
2023-05-20T07:15:03.979Z,100620.22
2023-05-20T07:17:33.200Z,100619.44
2023-05-20T07:20:00.366Z,100615.19
2023-05-20T07:22:27.711Z,100612.28
2023-05-20T07:25:14.934Z,100611.00
2023-05-20T07:27:42.176Z,100609.88
2023-05-20T07:30:09.751Z,100607.84
2023-05-20T07:32:38.024Z,100610.31
2023-05-20T07:35:06.753Z,100610.53
2023-05-20T07:37:33.885Z,100606.94
2023-05-20T07:40:02.132Z,100603.94
2023-05-20T07:42:32.300Z,100608.66
2023-05-20T07:45:01.466Z,100613.47
2023-05-20T07:47:33.106Z,100612.53
2023-05-20T07:50:00.887Z,100615.38
2023-05-20T07:52:35.630Z,100616.41
2023-05-20T07:55:08.515Z,100608.53
2023-05-20T07:57:35.747Z,100616.34
2023-05-20T08:00:02.959Z,100617.59
2023-05-20T08:02:32.279Z,100617.84
2023-05-20T08:05:00.198Z,100609.19
2023-05-20T08:07:27.498Z,100621.19
2023-05-20T08:09:55.770Z,100612.88
2023-05-20T08:12:23.138Z,100611.56
2023-05-20T08:14:50.691Z,100606.38
2023-05-20T08:17:18.372Z,100613.59
2023-05-20T08:19:45.475Z,100613.66
2023-05-20T08:22:14.440Z,100619.50
2023-05-20T08:24:41.420Z,100607.25
2023-05-20T08:27:08.744Z,100613.16
2023-05-20T08:29:36.329Z,100605.31
2023-05-20T08:32:04.549Z,100607.06
2023-05-20T08:34:32.210Z,100595.44
2023-05-20T08:36:59.218Z,100603.03
2023-05-20T08:39:27.302Z,100602.13
2023-05-20T08:41:55.980Z,100605.09
2023-05-20T08:44:23.083Z,100601.03
2023-05-20T08:46:50.329Z,100596.06
2023-05-20T08:49:19.581Z,100601.16
2023-05-20T08:51:47.450Z,100594.91
2023-05-20T08:54:15.028Z,100591.25
2023-05-20T09:00:13.282Z,100595.47
2023-05-20T09:03:05.539Z,100589.66
2023-05-20T09:05:33.038Z,100591.66
2023-05-20T09:08:12.996Z,100594.66
2023-05-20T09:10:40.822Z,100600.06
2023-05-20T09:13:08.725Z,100600.66
2023-05-20T09:15:36.343Z,100601.50
2023-05-20T09:18:04.945Z,100607.97
2023-05-20T09:20:41.205Z,100603.31
2023-05-20T09:23:09.537Z,100614.31
2023-05-20T09:25:37.426Z,100611.16
2023-05-20T09:28:07.930Z,100607.72
2023-05-20T09:30:35.336Z,100606.94
2023-05-20T09:33:04.874Z,100603.50
2023-05-20T09:35:34.755Z,100606.22
2023-05-20T09:38:01.905Z,100609.72
2023-05-20T09:40:29.568Z,100608.94
2023-05-20T09:42:57.832Z,100604.41
2023-05-20T09:45:24.922Z,100606.44
2023-05-20T09:47:55.260Z,100602.47
2023-05-20T09:50:23.459Z,100602.41
2023-05-20T09:52:52.404Z,100614.19
2023-05-20T09:55:21.218Z,100611.28
2023-05-20T09:57:48.820Z,100614.38
2023-05-20T10:00:17.758Z,100614.84
2023-05-20T10:02:49.927Z,100617.63
2023-05-20T10:05:24.429Z,100610.88
2023-05-20T10:08:21.938Z,100612.88
2023-05-20T10:11:16.869Z,100615.81
2023-05-20T10:14:14.919Z,100622.06
2023-05-20T10:17:02.410Z,100616.84
2023-05-20T10:19:31.486Z,100629.94
2023-05-20T10:22:03.133Z,100628.25
2023-05-20T10:24:38.251Z,100625.88
2023-05-20T10:27:08.709Z,100639.91
2023-05-20T10:29:43.409Z,100634.38
2023-05-20T10:32:10.583Z,100634.38
2023-05-20T10:34:48.163Z,100642.38
2023-05-20T10:37:29.089Z,100634.66
2023-05-20T10:40:09.154Z,100632.19
2023-05-20T10:42:36.231Z,100634.97
2023-05-20T10:45:04.015Z,100632.41
2023-05-20T10:47:32.491Z,100641.22
2023-05-20T10:49:59.567Z,100645.66
2023-05-20T10:52:26.607Z,100643.03
2023-05-20T10:54:53.640Z,100647.41
2023-05-20T10:57:21.477Z,100643.13
2023-05-20T10:59:48.667Z,100644.19
2023-05-20T11:02:16.473Z,100648.66
2023-05-20T11:04:43.957Z,100650.50
2023-05-20T11:07:11.141Z,100648.00
2023-05-20T11:09:38.352Z,100648.03
2023-05-20T11:12:05.990Z,100651.56
2023-05-20T11:14:32.991Z,100649.00
2023-05-20T11:17:00.499Z,100644.72
2023-05-20T11:19:28.180Z,100642.94
2023-05-20T11:21:55.719Z,100650.84
2023-05-20T11:24:27.331Z,100655.22
2023-05-20T11:26:56.099Z,100652.63
2023-05-20T11:29:23.470Z,100653.50
2023-05-20T11:31:53.347Z,100653.53
2023-05-20T11:34:23.396Z,100657.91
2023-05-20T11:36:59.222Z,100657.00
2023-05-20T11:39:29.500Z,100654.41
2023-05-20T11:41:57.293Z,100654.41
2023-05-20T11:44:24.778Z,100643.16
2023-05-20T11:46:51.851Z,100657.94
2023-05-20T11:49:19.071Z,100650.13
2023-05-20T11:51:46.283Z,100651.84
2023-05-20T11:54:13.376Z,100645.69
2023-05-20T11:56:43.547Z,100656.13
2023-05-20T11:59:11.149Z,100645.63
2023-05-20T12:01:43.070Z,100648.22
2023-05-20T12:04:10.546Z,100654.31
2023-05-20T12:06:37.759Z,100655.19
2023-05-20T12:09:07.294Z,100652.56
2023-05-20T12:11:35.880Z,100646.47
2023-05-20T12:16:55.358Z,100659.59
2023-05-20T12:19:22.610Z,100660.47
2023-05-20T12:21:49.748Z,100670.13
2023-05-20T12:24:16.844Z,100666.72
2023-05-20T12:26:43.918Z,100671.13
2023-05-20T12:29:10.844Z,100677.28
2023-05-20T12:31:38.055Z,100667.72
2023-05-20T12:34:05.267Z,100663.41
2023-05-20T12:36:33.883Z,100651.19
2023-05-20T12:39:01.287Z,100657.25
2023-05-20T12:41:28.356Z,100654.63
2023-05-20T12:43:55.507Z,100649.38
2023-05-20T12:46:22.767Z,100641.56
2023-05-20T12:48:49.969Z,100648.53
2023-05-20T12:51:17.062Z,100652.00
2023-05-20T12:53:44.180Z,100649.38
2023-05-20T12:56:11.230Z,100650.25
2023-05-20T12:58:38.241Z,100651.13
2023-05-20T13:01:05.423Z,100655.47
2023-05-20T13:03:32.722Z,100656.34
2023-05-20T13:05:59.881Z,100666.81
2023-05-20T13:08:28.703Z,100660.72
2023-05-20T13:10:56.019Z,100652.00
2023-05-20T13:13:23.864Z,100659.84
2023-05-20T13:15:51.141Z,100652.88
2023-05-20T13:18:19.362Z,100644.16
2023-05-20T13:20:46.441Z,100648.47
2023-05-20T13:23:13.515Z,100648.47
2023-05-20T13:25:41.068Z,100649.31
2023-05-20T13:28:08.264Z,100650.16
2023-05-20T13:30:35.601Z,100653.63
2023-05-20T13:33:02.930Z,100657.09
2023-05-20T13:35:30.040Z,100663.19
2023-05-20T13:37:57.267Z,100657.13
2023-05-20T13:40:24.742Z,100659.78
2023-05-20T13:42:51.714Z,100661.53
2023-05-20T13:45:18.959Z,100656.31
2023-05-20T13:47:46.439Z,100659.81
2023-05-20T13:50:13.653Z,100665.06
2023-05-20T13:52:40.778Z,100663.34
2023-05-20T13:55:08.587Z,100668.56
2023-05-20T13:57:35.779Z,100667.69
2023-05-20T14:00:02.861Z,100665.94
2023-05-20T14:02:36.503Z,100668.56
2023-05-20T14:05:03.838Z,100664.19
2023-05-20T14:07:31.930Z,100659.81
2023-05-20T14:09:59.109Z,100662.44
2023-05-20T14:12:26.320Z,100655.41
2023-05-20T14:14:53.295Z,100654.47
2023-05-20T14:17:20.606Z,100657.06
2023-05-20T14:19:47.695Z,100664.09
2023-05-20T14:22:15.793Z,100663.25
2023-05-20T14:24:42.968Z,100665.09
2023-05-20T14:27:11.512Z,100667.75
2023-05-20T14:29:38.742Z,100671.25
2023-05-20T14:32:05.969Z,100667.81
2023-05-20T14:34:32.974Z,100666.09
2023-05-20T14:37:05.664Z,100670.50
2023-05-20T14:39:32.700Z,100669.59
2023-05-20T14:41:59.816Z,100660.94
2023-05-20T14:44:26.918Z,100660.97
2023-05-20T14:46:53.995Z,100664.47
2023-05-20T14:49:21.310Z,100664.47
2023-05-20T14:51:48.587Z,100663.59
2023-05-20T14:54:15.995Z,100658.44
2023-05-20T14:56:43.019Z,100667.16
2023-05-20T14:59:10.153Z,100668.91
2023-05-20T15:01:37.358Z,100666.31
2023-05-20T15:04:04.569Z,100666.31
2023-05-20T15:06:33.713Z,100670.63
2023-05-20T15:09:00.903Z,100667.16
2023-05-20T15:11:28.162Z,100668.91
2023-05-20T15:13:55.109Z,100678.47
2023-05-20T15:16:24.460Z,100675.88
2023-05-20T15:18:52.070Z,100674.13
2023-05-20T15:21:19.319Z,100668.91
2023-05-20T15:23:46.485Z,100662.84
2023-05-20T15:26:13.626Z,100663.72
2023-05-20T15:28:40.995Z,100661.97
2023-05-20T15:31:08.069Z,100663.72
2023-05-20T15:33:35.315Z,100659.38
2023-05-20T15:36:02.581Z,100659.38
2023-05-20T15:38:29.836Z,100661.13
2023-05-20T15:40:57.271Z,100662.00
2023-05-20T15:43:24.318Z,100663.72
2023-05-20T15:45:51.441Z,100660.25
2023-05-20T15:48:18.711Z,100661.13
2023-05-20T15:50:45.773Z,100662.88
2023-05-20T15:53:14.404Z,100670.66
2023-05-20T15:55:42.858Z,100663.72
2023-05-20T15:58:10.060Z,100656.78
2023-05-20T16:00:37.322Z,100662.88
2023-05-20T16:03:04.563Z,100657.66
2023-05-20T16:05:31.726Z,100666.34
2023-05-20T16:07:58.918Z,100662.84
2023-05-20T16:10:27.730Z,100662.84
2023-05-20T16:12:54.925Z,100663.75
2023-05-20T16:15:22.212Z,100664.56
2023-05-20T16:17:49.432Z,100664.56
2023-05-20T16:20:16.547Z,100661.13
2023-05-20T16:22:43.642Z,100663.69
2023-05-20T16:25:14.238Z,100661.13
2023-05-20T16:27:41.503Z,100651.53
2023-05-20T16:30:09.839Z,100657.63
2023-05-20T16:32:37.099Z,100657.63
2023-05-20T16:35:05.086Z,100658.50
2023-05-20T16:37:33.049Z,100657.59
2023-05-20T16:40:00.309Z,100655.88
2023-05-20T16:42:27.444Z,100654.97
2023-05-20T16:44:54.721Z,100659.28
2023-05-20T16:47:21.846Z,100663.63
2023-05-20T16:49:48.993Z,100665.34
2023-05-20T16:52:16.281Z,100662.75
2023-05-20T16:54:43.544Z,100662.75
2023-05-20T16:57:12.559Z,100657.56
2023-05-20T16:59:39.777Z,100659.28
2023-05-20T17:02:07.160Z,100659.25
2023-05-20T17:04:34.267Z,100655.78
2023-05-20T17:07:01.925Z,100658.38
2023-05-20T17:09:29.258Z,100660.97
2023-05-20T17:11:56.588Z,100654.88
2023-05-20T17:14:23.777Z,100654.84
2023-05-20T17:16:51.192Z,100657.47
2023-05-20T17:19:18.440Z,100654.81
2023-05-20T17:21:45.831Z,100650.44
2023-05-20T17:24:13.023Z,100645.22
2023-05-20T17:26:40.064Z,100642.56
2023-05-20T17:29:07.138Z,100642.53
2023-05-20T17:31:34.234Z,100639.91
2023-05-20T17:34:02.002Z,100639.06
2023-05-20T17:36:29.322Z,100640.75
2023-05-20T17:38:57.153Z,100638.13
2023-05-20T17:41:24.358Z,100640.75
2023-05-20T17:43:51.529Z,100638.97
2023-05-20T17:46:18.798Z,100634.63
2023-05-20T17:48:52.273Z,100637.19
2023-05-20T17:51:29.169Z,100640.63
2023-05-20T17:53:57.055Z,100645.84
2023-05-20T17:56:24.324Z,100640.59
2023-05-20T17:58:52.541Z,100646.63
2023-05-20T18:01:20.799Z,100645.75
2023-05-20T18:03:48.290Z,100645.72
2023-05-20T18:06:16.494Z,100641.38
2023-05-20T18:08:44.020Z,100649.06
2023-05-20T18:11:11.037Z,100640.34
2023-05-20T18:13:38.293Z,100635.09
2023-05-20T18:16:06.177Z,100641.97
2023-05-20T18:18:33.324Z,100643.63
2023-05-20T18:21:00.720Z,100642.69
2023-05-20T18:23:27.925Z,100640.94
2023-05-20T18:25:55.146Z,100640.06
2023-05-20T18:28:22.691Z,100646.94
2023-05-20T18:30:49.894Z,100651.25
2023-05-20T18:33:17.108Z,100650.34
2023-05-20T18:35:44.726Z,100649.47
2023-05-20T18:38:12.025Z,100652.88
2023-05-20T18:40:39.019Z,100645.06
2023-05-20T18:43:06.057Z,100641.56
2023-05-20T18:45:33.184Z,100637.22
2023-05-20T18:48:00.488Z,100636.34
2023-05-20T18:50:27.835Z,100627.63
2023-05-20T18:52:54.879Z,100631.13
2023-05-20T18:55:22.170Z,100627.63
2023-05-20T18:57:49.199Z,100633.69
2023-05-20T19:00:17.476Z,100625.88
2023-05-20T19:02:44.808Z,100630.19
2023-05-20T19:05:12.351Z,100627.59
2023-05-20T19:07:39.748Z,100629.28
2023-05-20T19:10:07.493Z,100630.06
2023-05-20T19:12:34.792Z,100622.19
2023-05-20T19:15:02.627Z,100625.59
2023-05-20T19:17:33.285Z,100617.72
2023-05-20T19:20:00.522Z,100620.28
2023-05-20T19:22:27.506Z,100623.66
2023-05-20T19:24:54.894Z,100627.91
2023-05-20T19:27:22.217Z,100620.94
2023-05-20T19:29:49.294Z,100617.44
2023-05-20T19:32:16.559Z,100621.75
2023-05-20T19:34:43.934Z,100616.53
2023-05-20T19:37:11.491Z,100623.41
2023-05-20T19:39:38.508Z,100626.81
2023-05-20T19:42:05.763Z,100614.59
2023-05-20T19:44:32.813Z,100614.41
2023-05-20T19:47:00.101Z,100617.81
2023-05-20T19:49:29.609Z,100612.59
2023-05-20T19:51:56.973Z,100616.09
2023-05-20T19:54:24.101Z,100616.97
2023-05-20T19:56:51.280Z,100603.97
2023-05-20T19:59:18.459Z,100608.25
2023-05-20T20:01:45.624Z,100601.28
2023-05-20T20:04:13.388Z,100597.84
2023-05-20T20:06:40.539Z,100599.63
2023-05-20T20:09:08.629Z,100599.69
2023-05-20T20:11:36.373Z,100596.25
2023-05-20T20:14:03.382Z,100595.34
2023-05-20T20:16:30.694Z,100594.50
2023-05-20T20:18:57.983Z,100587.56
2023-05-20T20:21:25.889Z,100577.13
2023-05-20T20:23:53.643Z,100576.22
2023-05-20T20:26:25.927Z,100573.53
2023-05-20T20:28:53.241Z,100571.00
2023-05-20T20:31:20.422Z,100566.66
2023-05-20T20:33:47.681Z,100561.50
2023-05-20T20:36:14.964Z,100557.25
2023-05-20T20:38:46.898Z,100553.88
2023-05-20T20:41:16.376Z,100559.06
2023-05-20T20:43:45.083Z,100552.16
2023-05-20T20:46:15.670Z,100546.97
2023-05-20T20:48:45.910Z,100549.53
2023-05-20T20:51:14.189Z,100546.84
2023-05-20T20:53:42.120Z,100546.84
2023-05-20T20:56:12.409Z,100547.72
2023-05-20T20:58:39.694Z,100539.97
2023-05-20T21:01:07.081Z,100547.72
2023-05-20T21:03:34.345Z,100546.03
2023-05-20T21:06:02.127Z,100543.44
2023-05-20T21:08:30.536Z,100549.50
2023-05-20T21:10:59.541Z,100542.50
2023-05-20T21:13:28.645Z,100538.16
2023-05-20T21:15:56.039Z,100541.59
2023-05-20T21:18:24.027Z,100551.13
2023-05-20T21:20:52.000Z,100538.13
2023-05-20T21:23:19.794Z,100535.50
2023-05-20T21:25:47.098Z,100539.84
2023-05-20T21:28:14.535Z,100536.38
2023-05-20T21:30:41.696Z,100528.66
2023-05-20T21:33:09.123Z,100526.06
2023-05-20T21:35:36.613Z,100526.06
2023-05-20T21:38:04.064Z,100517.38
2023-05-20T21:40:31.296Z,100516.50
2023-05-20T21:42:58.428Z,100513.03
2023-05-20T21:45:25.509Z,100513.91
2023-05-20T21:47:52.755Z,100511.34
2023-05-20T21:50:19.870Z,100509.53
2023-05-20T21:52:46.947Z,100508.66
2023-05-20T21:55:14.187Z,100512.97
2023-05-20T21:57:41.283Z,100505.22
2023-05-20T22:00:10.566Z,100502.66
2023-05-20T22:02:37.879Z,100507.84
2023-05-20T22:05:05.440Z,100504.38
2023-05-20T22:07:33.202Z,100498.38
2023-05-20T22:10:00.795Z,100507.00
2023-05-20T22:12:27.889Z,100507.84
2023-05-20T22:14:55.148Z,100502.63
2023-05-20T22:17:23.975Z,100501.81
2023-05-20T22:19:51.912Z,100495.81
2023-05-20T22:22:19.003Z,100495.78
2023-05-20T22:24:46.087Z,100492.31
2023-05-20T22:27:13.202Z,100490.59
2023-05-20T22:29:40.297Z,100492.34
2023-05-20T22:32:07.474Z,100485.38
2023-05-20T22:34:34.437Z,100482.78
2023-05-20T22:37:02.284Z,100489.69
2023-05-20T22:39:29.430Z,100481.94
2023-05-20T22:41:56.418Z,100477.66
2023-05-20T22:44:23.607Z,100470.75
2023-05-20T22:46:50.659Z,100470.75
2023-05-20T22:49:18.814Z,100468.22
2023-05-20T22:51:45.940Z,100465.69
2023-05-20T22:54:13.005Z,100463.16
2023-05-20T22:56:40.067Z,100461.44
2023-05-20T22:59:07.120Z,100458.84
2023-05-20T23:01:34.217Z,100461.47
2023-05-20T23:04:01.468Z,100457.16
2023-05-20T23:06:28.561Z,100455.38
2023-05-20T23:08:55.764Z,100453.66
2023-05-20T23:11:23.453Z,100450.25
2023-05-20T23:13:50.578Z,100445.09
2023-05-20T23:16:17.777Z,100448.53
2023-05-20T23:18:45.032Z,100448.53
2023-05-20T23:21:12.169Z,100446.75
2023-05-20T23:23:39.314Z,100449.38
2023-05-20T23:26:06.381Z,100451.19
2023-05-20T23:28:33.429Z,100450.38
2023-05-20T23:31:01.069Z,100442.63
2023-05-20T23:33:29.550Z,100446.13
2023-05-20T23:35:56.924Z,100442.66
2023-05-20T23:38:24.371Z,100440.94
2023-05-20T23:40:51.412Z,100441.81
2023-05-20T23:43:18.515Z,100435.72
2023-05-20T23:45:45.683Z,100444.44
2023-05-20T23:48:13.704Z,100429.75
2023-05-20T23:50:41.042Z,100428.00
2023-05-20T23:53:08.271Z,100437.47
2023-05-20T23:55:35.679Z,100436.63
2023-05-20T23:58:02.943Z,100431.44
